sensor_id;sensor_type;location;lat;lon;timestamp;P1;P2;P0
70520;PMS5003;58442;52.716;23.560;2022-10-18T00:00:02;31;29;19
70520;PMS5003;58442;52.716;23.560;2022-10-18T00:02:05;30;30;17
70520;PMS5003;58442;52.716;23.560;2022-10-18T00:04:06;32;30;20
70520;PMS5003;58442;52.716;23.560;2022-10-18T00:06:16;29;28;16
70520;PMS5003;58442;52.716;23.560;2022-10-18T00:08:18;34;31;18
70520;PMS5003;58442;52.716;23.560;2022-10-18T00:10:20;36;30;18
70520;PMS5003;58442;52.716;23.560;2022-10-18T00:12:24;27;19;13
70520;PMS5003;58442;52.716;23.560;2022-10-18T00:14:31;29;28;18
70520;PMS5003;58442;52.716;23.560;2022-10-18T00:16:32;27;27;19
70520;PMS5003;58442;52.716;23.560;2022-10-18T00:18:33;24;24;15
70520;PMS5003;58442;52.716;23.560;2022-10-18T00:20:34;26;26;15
70520;PMS5003;58442;52.716;23.560;2022-10-18T00:22:46;24;24;16
70520;PMS5003;58442;52.716;23.560;2022-10-18T00:24:47;24;23;16
70520;PMS5003;58442;52.716;23.560;2022-10-18T00:26:48;29;28;16
70520;PMS5003;58442;52.716;23.560;2022-10-18T00:28:50;33;30;18
70520;PMS5003;58442;52.716;23.560;2022-10-18T00:33:22;25;24;14
70520;PMS5003;58442;52.716;23.560;2022-10-18T00:35:23;27;25;14
70520;PMS5003;58442;52.716;23.560;2022-10-18T00:37:25;31;30;17
70520;PMS5003;58442;52.716;23.560;2022-10-18T00:39:26;34;32;19
70520;PMS5003;58442;52.716;23.560;2022-10-18T00:41:37;29;29;18
70520;PMS5003;58442;52.716;23.560;2022-10-18T00:45:51;28;26;15
70520;PMS5003;58442;52.716;23.560;2022-10-18T00:47:54;28;28;18
70520;PMS5003;58442;52.716;23.560;2022-10-18T00:50:00;26;25;15
70520;PMS5003;58442;52.716;23.560;2022-10-18T00:52:08;27;27;16
70520;PMS5003;58442;52.716;23.560;2022-10-18T00:54:16;21;21;17
70520;PMS5003;58442;52.716;23.560;2022-10-18T00:56:20;25;25;17
70520;PMS5003;58442;52.716;23.560;2022-10-18T00:58:22;32;28;19
70520;PMS5003;58442;52.716;23.560;2022-10-18T01:00:23;27;26;15
70520;PMS5003;58442;52.716;23.560;2022-10-18T01:02:24;26;26;17
70520;PMS5003;58442;52.716;23.560;2022-10-18T01:04:26;24;24;16
70520;PMS5003;58442;52.716;23.560;2022-10-18T01:06:54;26;26;14
70520;PMS5003;58442;52.716;23.560;2022-10-18T01:11:25;21;21;12
70520;PMS5003;58442;52.716;23.560;2022-10-18T01:16:11;22;22;15
70520;PMS5003;58442;52.716;23.560;2022-10-18T01:23:11;21;21;16
70520;PMS5003;58442;52.716;23.560;2022-10-18T01:27:49;32;30;18
70520;PMS5003;58442;52.716;23.560;2022-10-18T01:30:05;22;22;18
70520;PMS5003;58442;52.716;23.560;2022-10-18T01:32:11;23;21;16
70520;PMS5003;58442;52.716;23.560;2022-10-18T01:34:16;27;27;16
70520;PMS5003;58442;52.716;23.560;2022-10-18T01:36:24;20;20;17
70520;PMS5003;58442;52.716;23.560;2022-10-18T01:38:34;17;17;13
70520;PMS5003;58442;52.716;23.560;2022-10-18T01:40:38;26;25;17
70520;PMS5003;58442;52.716;23.560;2022-10-18T01:42:43;22;22;15
70520;PMS5003;58442;52.716;23.560;2022-10-18T01:44:47;23;23;19
70520;PMS5003;58442;52.716;23.560;2022-10-18T01:46:52;26;26;15
70520;PMS5003;58442;52.716;23.560;2022-10-18T01:48:55;28;28;17
70520;PMS5003;58442;52.716;23.560;2022-10-18T01:50:57;25;21;12
70520;PMS5003;58442;52.716;23.560;2022-10-18T01:52:59;23;23;17
70520;PMS5003;58442;52.716;23.560;2022-10-18T01:55:04;24;24;16
70520;PMS5003;58442;52.716;23.560;2022-10-18T01:57:16;25;25;15
70520;PMS5003;58442;52.716;23.560;2022-10-18T02:01:36;24;24;16
70520;PMS5003;58442;52.716;23.560;2022-10-18T02:03:46;21;21;16
70520;PMS5003;58442;52.716;23.560;2022-10-18T02:10:47;23;23;15
70520;PMS5003;58442;52.716;23.560;2022-10-18T02:12:49;25;25;16
70520;PMS5003;58442;52.716;23.560;2022-10-18T02:14:53;17;17;11
70520;PMS5003;58442;52.716;23.560;2022-10-18T02:16:57;26;25;16
70520;PMS5003;58442;52.716;23.560;2022-10-18T02:19:11;23;23;15
70520;PMS5003;58442;52.716;23.560;2022-10-18T02:21:11;27;26;16
70520;PMS5003;58442;52.716;23.560;2022-10-18T02:23:25;27;25;13
70520;PMS5003;58442;52.716;23.560;2022-10-18T02:25:27;28;27;13
70520;PMS5003;58442;52.716;23.560;2022-10-18T02:27:31;23;23;12
70520;PMS5003;58442;52.716;23.560;2022-10-18T02:29:32;25;25;16
70520;PMS5003;58442;52.716;23.560;2022-10-18T02:33:49;20;20;15
70520;PMS5003;58442;52.716;23.560;2022-10-18T02:36:08;18;18;14
70520;PMS5003;58442;52.716;23.560;2022-10-18T02:38:10;23;22;16
70520;PMS5003;58442;52.716;23.560;2022-10-18T02:40:13;20;20;15
70520;PMS5003;58442;52.716;23.560;2022-10-18T02:42:23;22;22;12
70520;PMS5003;58442;52.716;23.560;2022-10-18T02:44:25;22;22;15
70520;PMS5003;58442;52.716;23.560;2022-10-18T02:46:27;24;24;16
70520;PMS5003;58442;52.716;23.560;2022-10-18T02:48:28;22;22;16
70520;PMS5003;58442;52.716;23.560;2022-10-18T02:50:38;20;20;14
70520;PMS5003;58442;52.716;23.560;2022-10-18T02:52:39;24;22;13
70520;PMS5003;58442;52.716;23.560;2022-10-18T02:54:41;22;21;15
70520;PMS5003;58442;52.716;23.560;2022-10-18T02:56:42;21;21;15
70520;PMS5003;58442;52.716;23.560;2022-10-18T02:58:53;25;25;15
70520;PMS5003;58442;52.716;23.560;2022-10-18T03:00:54;24;23;14
70520;PMS5003;58442;52.716;23.560;2022-10-18T03:02:55;21;21;17
70520;PMS5003;58442;52.716;23.560;2022-10-18T03:04:57;22;22;11
70520;PMS5003;58442;52.716;23.560;2022-10-18T03:07:08;22;22;14
70520;PMS5003;58442;52.716;23.560;2022-10-18T03:09:09;26;26;17
70520;PMS5003;58442;52.716;23.560;2022-10-18T03:11:10;27;20;14
70520;PMS5003;58442;52.716;23.560;2022-10-18T03:13:12;21;21;14
70520;PMS5003;58442;52.716;23.560;2022-10-18T03:15:23;24;23;13
70520;PMS5003;58442;52.716;23.560;2022-10-18T03:17:24;21;21;15
70520;PMS5003;58442;52.716;23.560;2022-10-18T03:19:25;24;22;13
70520;PMS5003;58442;52.716;23.560;2022-10-18T03:21:26;20;20;12
70520;PMS5003;58442;52.716;23.560;2022-10-18T03:23:38;22;22;15
70520;PMS5003;58442;52.716;23.560;2022-10-18T03:25:41;16;16;12
70520;PMS5003;58442;52.716;23.560;2022-10-18T03:27:42;27;26;16
70520;PMS5003;58442;52.716;23.560;2022-10-18T03:29:43;26;23;12
70520;PMS5003;58442;52.716;23.560;2022-10-18T03:31:53;22;21;13
70520;PMS5003;58442;52.716;23.560;2022-10-18T03:33:54;29;25;15
70520;PMS5003;58442;52.716;23.560;2022-10-18T03:35:55;18;18;12
70520;PMS5003;58442;52.716;23.560;2022-10-18T03:37:56;19;19;14
70520;PMS5003;58442;52.716;23.560;2022-10-18T03:40:08;29;23;15
70520;PMS5003;58442;52.716;23.560;2022-10-18T03:42:09;24;23;16
70520;PMS5003;58442;52.716;23.560;2022-10-18T03:44:10;26;23;15
70520;PMS5003;58442;52.716;23.560;2022-10-18T03:46:11;26;26;16
70520;PMS5003;58442;52.716;23.560;2022-10-18T03:48:22;23;21;12
70520;PMS5003;58442;52.716;23.560;2022-10-18T03:50:23;23;23;14
70520;PMS5003;58442;52.716;23.560;2022-10-18T03:52:25;23;23;13
70520;PMS5003;58442;52.716;23.560;2022-10-18T03:54:26;21;21;14
70520;PMS5003;58442;52.716;23.560;2022-10-18T03:56:37;19;19;13
70520;PMS5003;58442;52.716;23.560;2022-10-18T03:58:38;22;21;13
70520;PMS5003;58442;52.716;23.560;2022-10-18T04:00:39;21;21;14
70520;PMS5003;58442;52.716;23.560;2022-10-18T04:02:40;18;18;13
70520;PMS5003;58442;52.716;23.560;2022-10-18T04:04:52;24;23;14
70520;PMS5003;58442;52.716;23.560;2022-10-18T04:06:53;20;18;11
70520;PMS5003;58442;52.716;23.560;2022-10-18T04:08:54;19;19;13
70520;PMS5003;58442;52.716;23.560;2022-10-18T04:10:55;25;24;16
70520;PMS5003;58442;52.716;23.560;2022-10-18T04:13:07;14;13;5
70520;PMS5003;58442;52.716;23.560;2022-10-18T04:15:09;22;21;14
70520;PMS5003;58442;52.716;23.560;2022-10-18T04:17:10;20;20;12
70520;PMS5003;58442;52.716;23.560;2022-10-18T04:19:11;23;22;13
70520;PMS5003;58442;52.716;23.560;2022-10-18T04:21:22;20;20;13
70520;PMS5003;58442;52.716;23.560;2022-10-18T04:23:23;21;21;14
70520;PMS5003;58442;52.716;23.560;2022-10-18T04:25:24;22;22;14
70520;PMS5003;58442;52.716;23.560;2022-10-18T04:27:25;20;20;14
70520;PMS5003;58442;52.716;23.560;2022-10-18T04:29:37;19;19;12
70520;PMS5003;58442;52.716;23.560;2022-10-18T04:31:38;24;23;14
70520;PMS5003;58442;52.716;23.560;2022-10-18T04:33:39;23;22;15
70520;PMS5003;58442;52.716;23.560;2022-10-18T04:35:40;24;24;14
70520;PMS5003;58442;52.716;23.560;2022-10-18T04:37:51;23;23;13
70520;PMS5003;58442;52.716;23.560;2022-10-18T04:39:52;25;25;15
70520;PMS5003;58442;52.716;23.560;2022-10-18T04:41:54;28;26;14
70520;PMS5003;58442;52.716;23.560;2022-10-18T04:43:55;22;22;15
70520;PMS5003;58442;52.716;23.560;2022-10-18T04:46:06;25;25;16
70520;PMS5003;58442;52.716;23.560;2022-10-18T04:48:07;22;22;14
70520;PMS5003;58442;52.716;23.560;2022-10-18T04:50:09;28;20;11
70520;PMS5003;58442;52.716;23.560;2022-10-18T04:52:10;20;20;14
70520;PMS5003;58442;52.716;23.560;2022-10-18T04:54:21;22;22;15
70520;PMS5003;58442;52.716;23.560;2022-10-18T04:56:22;27;27;14
70520;PMS5003;58442;52.716;23.560;2022-10-18T04:58:23;22;22;13
70520;PMS5003;58442;52.716;23.560;2022-10-18T05:00:25;25;22;14
70520;PMS5003;58442;52.716;23.560;2022-10-18T05:02:36;22;22;14
70520;PMS5003;58442;52.716;23.560;2022-10-18T05:04:37;22;21;14
70520;PMS5003;58442;52.716;23.560;2022-10-18T05:06:38;17;17;11
70520;PMS5003;58442;52.716;23.560;2022-10-18T05:08:39;25;25;14
70520;PMS5003;58442;52.716;23.560;2022-10-18T05:10:51;19;18;12
70520;PMS5003;58442;52.716;23.560;2022-10-18T05:12:52;23;22;13
70520;PMS5003;58442;52.716;23.560;2022-10-18T05:14:53;22;21;14
70520;PMS5003;58442;52.716;23.560;2022-10-18T05:16:54;24;21;15
70520;PMS5003;58442;52.716;23.560;2022-10-18T05:19:06;20;20;13
70520;PMS5003;58442;52.716;23.560;2022-10-18T05:21:07;22;20;13
70520;PMS5003;58442;52.716;23.560;2022-10-18T05:23:08;24;24;14
70520;PMS5003;58442;52.716;23.560;2022-10-18T05:25:10;19;19;13
70520;PMS5003;58442;52.716;23.560;2022-10-18T05:27:20;24;23;17
70520;PMS5003;58442;52.716;23.560;2022-10-18T05:29:22;23;23;15
70520;PMS5003;58442;52.716;23.560;2022-10-18T05:31:23;28;27;16
70520;PMS5003;58442;52.716;23.560;2022-10-18T05:33:24;29;28;14
70520;PMS5003;58442;52.716;23.560;2022-10-18T05:35:35;24;24;16
70520;PMS5003;58442;52.716;23.560;2022-10-18T05:37:37;21;21;14
70520;PMS5003;58442;52.716;23.560;2022-10-18T05:39:38;22;21;14
70520;PMS5003;58442;52.716;23.560;2022-10-18T05:41:39;25;24;16
70520;PMS5003;58442;52.716;23.560;2022-10-18T05:43:50;27;27;15
70520;PMS5003;58442;52.716;23.560;2022-10-18T05:45:51;27;25;17
70520;PMS5003;58442;52.716;23.560;2022-10-18T05:47:53;29;22;13
70520;PMS5003;58442;52.716;23.560;2022-10-18T05:49:54;21;21;15
70520;PMS5003;58442;52.716;23.560;2022-10-18T05:52:05;23;23;15
70520;PMS5003;58442;52.716;23.560;2022-10-18T05:54:06;21;21;13
70520;PMS5003;58442;52.716;23.560;2022-10-18T05:56:09;22;22;14
70520;PMS5003;58442;52.716;23.560;2022-10-18T05:58:11;18;18;12
70520;PMS5003;58442;52.716;23.560;2022-10-18T06:00:20;19;18;15
70520;PMS5003;58442;52.716;23.560;2022-10-18T06:02:21;26;26;16
70520;PMS5003;58442;52.716;23.560;2022-10-18T06:04:22;23;23;12
70520;PMS5003;58442;52.716;23.560;2022-10-18T06:06:23;24;23;15
70520;PMS5003;58442;52.716;23.560;2022-10-18T06:08:35;23;23;14
70520;PMS5003;58442;52.716;23.560;2022-10-18T06:10:38;19;19;15
70520;PMS5003;58442;52.716;23.560;2022-10-18T06:12:40;24;24;15
70520;PMS5003;58442;52.716;23.560;2022-10-18T06:14:42;20;20;14
70520;PMS5003;58442;52.716;23.560;2022-10-18T06:16:50;23;23;14
70520;PMS5003;58442;52.716;23.560;2022-10-18T06:18:54;18;18;13
70520;PMS5003;58442;52.716;23.560;2022-10-18T06:20:57;24;24;16
70520;PMS5003;58442;52.716;23.560;2022-10-18T06:22:59;22;22;15
70520;PMS5003;58442;52.716;23.560;2022-10-18T06:25:05;22;21;16
70520;PMS5003;58442;52.716;23.560;2022-10-18T06:27:06;20;19;11
70520;PMS5003;58442;52.716;23.560;2022-10-18T06:29:09;23;23;14
70520;PMS5003;58442;52.716;23.560;2022-10-18T06:31:10;18;18;14
70520;PMS5003;58442;52.716;23.560;2022-10-18T06:33:19;22;22;14
70520;PMS5003;58442;52.716;23.560;2022-10-18T06:35:20;22;22;14
70520;PMS5003;58442;52.716;23.560;2022-10-18T06:37:22;25;25;15
70520;PMS5003;58442;52.716;23.560;2022-10-18T06:39:23;24;24;16
70520;PMS5003;58442;52.716;23.560;2022-10-18T06:41:34;26;26;14
70520;PMS5003;58442;52.716;23.560;2022-10-18T06:43:35;29;28;15
70520;PMS5003;58442;52.716;23.560;2022-10-18T06:45:36;27;27;16
70520;PMS5003;58442;52.716;23.560;2022-10-18T06:47:38;24;24;17
70520;PMS5003;58442;52.716;23.560;2022-10-18T06:49:49;25;25;16
70520;PMS5003;58442;52.716;23.560;2022-10-18T06:51:52;18;18;12
70520;PMS5003;58442;52.716;23.560;2022-10-18T06:53:53;27;26;15
70520;PMS5003;58442;52.716;23.560;2022-10-18T06:58:04;19;19;12
70520;PMS5003;58442;52.716;23.560;2022-10-18T07:00:06;26;26;14
70520;PMS5003;58442;52.716;23.560;2022-10-18T07:02:09;22;21;13
70520;PMS5003;58442;52.716;23.560;2022-10-18T07:04:15;20;20;13
70520;PMS5003;58442;52.716;23.560;2022-10-18T07:06:19;25;24;14
70520;PMS5003;58442;52.716;23.560;2022-10-18T07:08:21;19;19;11
70520;PMS5003;58442;52.716;23.560;2022-10-18T07:10:22;21;19;14
70520;PMS5003;58442;52.716;23.560;2022-10-18T07:12:25;24;24;14
70520;PMS5003;58442;52.716;23.560;2022-10-18T07:14:33;24;24;14
70520;PMS5003;58442;52.716;23.560;2022-10-18T07:16:34;30;29;17
70520;PMS5003;58442;52.716;23.560;2022-10-18T07:18:37;24;24;16
70520;PMS5003;58442;52.716;23.560;2022-10-18T07:20:40;20;20;13
70520;PMS5003;58442;52.716;23.560;2022-10-18T07:22:48;22;22;15
70520;PMS5003;58442;52.716;23.560;2022-10-18T07:24:49;23;22;15
70520;PMS5003;58442;52.716;23.560;2022-10-18T07:26:51;19;18;11
70520;PMS5003;58442;52.716;23.560;2022-10-18T07:28:52;22;22;14
70520;PMS5003;58442;52.716;23.560;2022-10-18T07:31:04;19;19;13
70520;PMS5003;58442;52.716;23.560;2022-10-18T07:33:06;20;20;13
70520;PMS5003;58442;52.716;23.560;2022-10-18T07:35:08;23;23;14
70520;PMS5003;58442;52.716;23.560;2022-10-18T07:37:09;27;19;14
70520;PMS5003;58442;52.716;23.560;2022-10-18T07:39:18;23;23;14
70520;PMS5003;58442;52.716;23.560;2022-10-18T07:41:19;21;21;14
70520;PMS5003;58442;52.716;23.560;2022-10-18T07:43:21;20;20;11
70520;PMS5003;58442;52.716;23.560;2022-10-18T07:45:22;25;21;15
70520;PMS5003;58442;52.716;23.560;2022-10-18T07:47:33;20;20;12
70520;PMS5003;58442;52.716;23.560;2022-10-18T07:49:34;25;25;15
70520;PMS5003;58442;52.716;23.560;2022-10-18T07:51:35;27;24;16
70520;PMS5003;58442;52.716;23.560;2022-10-18T07:53:36;20;20;12
70520;PMS5003;58442;52.716;23.560;2022-10-18T07:55:47;23;23;16
70520;PMS5003;58442;52.716;23.560;2022-10-18T07:57:49;19;19;14
70520;PMS5003;58442;52.716;23.560;2022-10-18T07:59:50;22;21;13
70520;PMS5003;58442;52.716;23.560;2022-10-18T08:01:56;22;22;14
70520;PMS5003;58442;52.716;23.560;2022-10-18T08:04:02;21;21;16
70520;PMS5003;58442;52.716;23.560;2022-10-18T08:06:04;19;19;16
70520;PMS5003;58442;52.716;23.560;2022-10-18T08:08:08;17;17;12
70520;PMS5003;58442;52.716;23.560;2022-10-18T08:10:10;21;21;14
70520;PMS5003;58442;52.716;23.560;2022-10-18T08:12:17;25;25;15
70520;PMS5003;58442;52.716;23.560;2022-10-18T08:14:18;21;20;10
70520;PMS5003;58442;52.716;23.560;2022-10-18T08:16:21;18;17;12
70520;PMS5003;58442;52.716;23.560;2022-10-18T08:18:24;30;29;16
70520;PMS5003;58442;52.716;23.560;2022-10-18T08:20:32;27;27;16
70520;PMS5003;58442;52.716;23.560;2022-10-18T08:22:36;24;24;14
70520;PMS5003;58442;52.716;23.560;2022-10-18T08:24:37;26;26;16
70520;PMS5003;58442;52.716;23.560;2022-10-18T08:26:38;20;20;14
70520;PMS5003;58442;52.716;23.560;2022-10-18T08:28:47;21;21;15
70520;PMS5003;58442;52.716;23.560;2022-10-18T08:30:49;22;22;13
70520;PMS5003;58442;52.716;23.560;2022-10-18T08:32:50;22;22;13
70520;PMS5003;58442;52.716;23.560;2022-10-18T08:34:52;25;25;15
70520;PMS5003;58442;52.716;23.560;2022-10-18T08:37:02;15;15;12
70520;PMS5003;58442;52.716;23.560;2022-10-18T08:39:03;21;21;15
70520;PMS5003;58442;52.716;23.560;2022-10-18T08:43:25;22;21;16
70520;PMS5003;58442;52.716;23.560;2022-10-18T08:45:33;22;21;14
70520;PMS5003;58442;52.716;23.560;2022-10-18T08:47:39;21;21;15
70520;PMS5003;58442;52.716;23.560;2022-10-18T08:49:47;25;25;15
70520;PMS5003;58442;52.716;23.560;2022-10-18T08:51:54;22;22;15
70520;PMS5003;58442;52.716;23.560;2022-10-18T08:56:10;24;24;14
70520;PMS5003;58442;52.716;23.560;2022-10-18T08:58:23;24;24;16
70520;PMS5003;58442;52.716;23.560;2022-10-18T09:00:28;16;16;13
70520;PMS5003;58442;52.716;23.560;2022-10-18T09:09:28;23;23;14
70520;PMS5003;58442;52.716;23.560;2022-10-18T09:20:58;26;26;17
70520;PMS5003;58442;52.716;23.560;2022-10-18T09:25:13;30;28;18
70520;PMS5003;58442;52.716;23.560;2022-10-18T09:27:24;26;25;15
70520;PMS5003;58442;52.716;23.560;2022-10-18T09:29:39;21;21;14
70520;PMS5003;58442;52.716;23.560;2022-10-18T09:34:04;44;36;21
70520;PMS5003;58442;52.716;23.560;2022-10-18T09:36:25;36;33;19
70520;PMS5003;58442;52.716;23.560;2022-10-18T09:38:44;24;24;18
70520;PMS5003;58442;52.716;23.560;2022-10-18T09:42:59;28;26;16
70520;PMS5003;58442;52.716;23.560;2022-10-18T09:51:45;19;19;15
70520;PMS5003;58442;52.716;23.560;2022-10-18T09:58:15;73;64;34
70520;PMS5003;58442;52.716;23.560;2022-10-18T10:00:24;46;40;24
70520;PMS5003;58442;52.716;23.560;2022-10-18T10:02:29;66;54;33
70520;PMS5003;58442;52.716;23.560;2022-10-18T10:04:30;59;47;27
70520;PMS5003;58442;52.716;23.560;2022-10-18T10:06:31;55;46;28
70520;PMS5003;58442;52.716;23.560;2022-10-18T10:08:42;28;27;17
70520;PMS5003;58442;52.716;23.560;2022-10-18T10:10:47;33;31;20
70520;PMS5003;58442;52.716;23.560;2022-10-18T10:13:02;32;30;23
70520;PMS5003;58442;52.716;23.560;2022-10-18T10:19:25;21;20;14
70520;PMS5003;58442;52.716;23.560;2022-10-18T10:21:33;21;21;16
70520;PMS5003;58442;52.716;23.560;2022-10-18T10:23:51;28;28;18
70520;PMS5003;58442;52.716;23.560;2022-10-18T10:28:32;26;26;18
70520;PMS5003;58442;52.716;23.560;2022-10-18T10:30:36;23;23;14
70520;PMS5003;58442;52.716;23.560;2022-10-18T10:34:46;26;25;15
70520;PMS5003;58442;52.716;23.560;2022-10-18T10:36:49;22;22;16
70520;PMS5003;58442;52.716;23.560;2022-10-18T10:41:13;20;20;15
70520;PMS5003;58442;52.716;23.560;2022-10-18T10:45:31;30;29;19
70520;PMS5003;58442;52.716;23.560;2022-10-18T10:47:36;23;23;15
70520;PMS5003;58442;52.716;23.560;2022-10-18T10:49:41;21;21;15
70520;PMS5003;58442;52.716;23.560;2022-10-18T10:51:52;22;22;15
70520;PMS5003;58442;52.716;23.560;2022-10-18T10:56:19;20;20;13
70520;PMS5003;58442;52.716;23.560;2022-10-18T10:58:27;18;18;11
70520;PMS5003;58442;52.716;23.560;2022-10-18T11:00:34;20;20;14
70520;PMS5003;58442;52.716;23.560;2022-10-18T11:02:37;25;25;14
70520;PMS5003;58442;52.716;23.560;2022-10-18T11:04:39;21;21;15
70520;PMS5003;58442;52.716;23.560;2022-10-18T11:06:46;23;23;16
70520;PMS5003;58442;52.716;23.560;2022-10-18T11:08:53;51;43;26
70520;PMS5003;58442;52.716;23.560;2022-10-18T11:11:42;45;39;26
70520;PMS5003;58442;52.716;23.560;2022-10-18T11:15:28;47;40;26
70520;PMS5003;58442;52.716;23.560;2022-10-18T11:22:08;23;23;16
70520;PMS5003;58442;52.716;23.560;2022-10-18T11:24:21;21;21;14
70520;PMS5003;58442;52.716;23.560;2022-10-18T11:42:15;22;22;15
70520;PMS5003;58442;52.716;23.560;2022-10-18T11:44:43;28;28;18
70520;PMS5003;58442;52.716;23.560;2022-10-18T11:55:34;25;24;16
70520;PMS5003;58442;52.716;23.560;2022-10-18T11:57:43;63;51;30
70520;PMS5003;58442;52.716;23.560;2022-10-18T12:02:30;40;35;21
70520;PMS5003;58442;52.716;23.560;2022-10-18T12:04:44;30;29;17
70520;PMS5003;58442;52.716;23.560;2022-10-18T12:06:51;26;26;17
70520;PMS5003;58442;52.716;23.560;2022-10-18T12:08:57;25;25;17
70520;PMS5003;58442;52.716;23.560;2022-10-18T12:11:05;20;19;11
70520;PMS5003;58442;52.716;23.560;2022-10-18T12:13:15;24;24;16
70520;PMS5003;58442;52.716;23.560;2022-10-18T12:15:23;43;37;23
70520;PMS5003;58442;52.716;23.560;2022-10-18T12:17:30;36;30;20
70520;PMS5003;58442;52.716;23.560;2022-10-18T12:19:41;29;29;18
70520;PMS5003;58442;52.716;23.560;2022-10-18T12:21:45;25;25;17
70520;PMS5003;58442;52.716;23.560;2022-10-18T12:23:50;24;24;14
70520;PMS5003;58442;52.716;23.560;2022-10-18T12:25:58;24;24;14
70520;PMS5003;58442;52.716;23.560;2022-10-18T12:28:07;22;22;16
70520;PMS5003;58442;52.716;23.560;2022-10-18T12:30:23;26;26;17
70520;PMS5003;58442;52.716;23.560;2022-10-18T12:32:31;24;24;17
70520;PMS5003;58442;52.716;23.560;2022-10-18T12:34:38;20;20;14
70520;PMS5003;58442;52.716;23.560;2022-10-18T12:39:29;26;26;17
70520;PMS5003;58442;52.716;23.560;2022-10-18T12:41:32;27;27;16
70520;PMS5003;58442;52.716;23.560;2022-10-18T12:43:35;22;21;14
70520;PMS5003;58442;52.716;23.560;2022-10-18T12:47:50;24;24;16
70520;PMS5003;58442;52.716;23.560;2022-10-18T12:49:57;27;27;15
70520;PMS5003;58442;52.716;23.560;2022-10-18T12:54:38;19;18;14
70520;PMS5003;58442;52.716;23.560;2022-10-18T12:56:41;25;25;16
70520;PMS5003;58442;52.716;23.560;2022-10-18T12:58:43;25;25;16
70520;PMS5003;58442;52.716;23.560;2022-10-18T13:03:16;28;28;16
70520;PMS5003;58442;52.716;23.560;2022-10-18T13:07:34;28;27;18
70520;PMS5003;58442;52.716;23.560;2022-10-18T13:17:00;25;25;17
70520;PMS5003;58442;52.716;23.560;2022-10-18T13:19:25;22;22;14
70520;PMS5003;58442;52.716;23.560;2022-10-18T13:24:05;23;23;15
70520;PMS5003;58442;52.716;23.560;2022-10-18T13:35:50;28;27;17
70520;PMS5003;58442;52.716;23.560;2022-10-18T13:37:57;24;24;15
70520;PMS5003;58442;52.716;23.560;2022-10-18T13:44:28;21;21;15
70520;PMS5003;58442;52.716;23.560;2022-10-18T13:48:51;23;23;17
70520;PMS5003;58442;52.716;23.560;2022-10-18T13:50:59;22;22;16
70520;PMS5003;58442;52.716;23.560;2022-10-18T13:53:56;23;23;15
70520;PMS5003;58442;52.716;23.560;2022-10-18T14:06:41;18;17;10
70520;PMS5003;58442;52.716;23.560;2022-10-18T14:08:45;31;30;19
70520;PMS5003;58442;52.716;23.560;2022-10-18T14:10:55;22;22;18
70520;PMS5003;58442;52.716;23.560;2022-10-18T14:13:03;27;27;18
70520;PMS5003;58442;52.716;23.560;2022-10-18T14:22:24;20;18;12
70520;PMS5003;58442;52.716;23.560;2022-10-18T14:24:23;27;27;18
70520;PMS5003;58442;52.716;23.560;2022-10-18T14:26:27;23;23;16
70520;PMS5003;58442;52.716;23.560;2022-10-18T14:28:28;24;24;17
70520;PMS5003;58442;52.716;23.560;2022-10-18T14:30:30;25;25;16
70520;PMS5003;58442;52.716;23.560;2022-10-18T14:32:41;21;21;16
70520;PMS5003;58442;52.716;23.560;2022-10-18T14:34:59;13;13;7
70520;PMS5003;58442;52.716;23.560;2022-10-18T14:37:00;25;25;18
70520;PMS5003;58442;52.716;23.560;2022-10-18T14:39:03;25;25;16
70520;PMS5003;58442;52.716;23.560;2022-10-18T14:41:05;18;18;15
70520;PMS5003;58442;52.716;23.560;2022-10-18T14:43:17;25;25;15
70520;PMS5003;58442;52.716;23.560;2022-10-18T14:45:19;22;22;17
70520;PMS5003;58442;52.716;23.560;2022-10-18T14:47:24;25;25;15
70520;PMS5003;58442;52.716;23.560;2022-10-18T14:49:27;25;25;18
70520;PMS5003;58442;52.716;23.560;2022-10-18T14:51:31;36;33;22
70520;PMS5003;58442;52.716;23.560;2022-10-18T14:53:36;34;31;20
70520;PMS5003;58442;52.716;23.560;2022-10-18T14:55:39;42;37;22
70520;PMS5003;58442;52.716;23.560;2022-10-18T14:57:42;37;34;21
70520;PMS5003;58442;52.716;23.560;2022-10-18T14:59:46;52;40;22
70520;PMS5003;58442;52.716;23.560;2022-10-18T15:04:13;37;33;22
70520;PMS5003;58442;52.716;23.560;2022-10-18T15:06:19;34;31;21
70520;PMS5003;58442;52.716;23.560;2022-10-18T15:08:20;35;33;20
70520;PMS5003;58442;52.716;23.560;2022-10-18T15:10:30;34;32;19
70520;PMS5003;58442;52.716;23.560;2022-10-18T15:12:41;30;29;19
70520;PMS5003;58442;52.716;23.560;2022-10-18T15:14:44;45;35;21
70520;PMS5003;58442;52.716;23.560;2022-10-18T15:16:46;37;33;21
70520;PMS5003;58442;52.716;23.560;2022-10-18T15:23:22;48;39;23
70520;PMS5003;58442;52.716;23.560;2022-10-18T15:25:26;46;37;23
70520;PMS5003;58442;52.716;23.560;2022-10-18T15:27:35;43;38;23
70520;PMS5003;58442;52.716;23.560;2022-10-18T15:29:38;37;32;17
70520;PMS5003;58442;52.716;23.560;2022-10-18T15:31:43;43;36;22
70520;PMS5003;58442;52.716;23.560;2022-10-18T15:33:44;48;38;22
70520;PMS5003;58442;52.716;23.560;2022-10-18T15:35:45;47;39;24
70520;PMS5003;58442;52.716;23.560;2022-10-18T15:37:47;42;37;23
70520;PMS5003;58442;52.716;23.560;2022-10-18T15:42:36;44;38;23
70520;PMS5003;58442;52.716;23.560;2022-10-18T15:47:19;37;34;21
70520;PMS5003;58442;52.716;23.560;2022-10-18T15:51:51;39;35;22
70520;PMS5003;58442;52.716;23.560;2022-10-18T15:53:52;45;36;22
70520;PMS5003;58442;52.716;23.560;2022-10-18T15:55:58;37;31;20
70520;PMS5003;58442;52.716;23.560;2022-10-18T15:58:10;28;27;16
70520;PMS5003;58442;52.716;23.560;2022-10-18T16:00:17;31;30;20
70520;PMS5003;58442;52.716;23.560;2022-10-18T16:02:20;32;26;19
70520;PMS5003;58442;52.716;23.560;2022-10-18T16:04:25;30;29;18
70520;PMS5003;58442;52.716;23.560;2022-10-18T16:06:31;30;28;19
70520;PMS5003;58442;52.716;23.560;2022-10-18T16:08:44;42;32;18
70520;PMS5003;58442;52.716;23.560;2022-10-18T16:10:49;32;30;18
70520;PMS5003;58442;52.716;23.560;2022-10-18T16:12:56;29;28;19
70520;PMS5003;58442;52.716;23.560;2022-10-18T16:14:57;30;29;18
70520;PMS5003;58442;52.716;23.560;2022-10-18T16:16:59;33;31;19
70520;PMS5003;58442;52.716;23.560;2022-10-18T16:19:06;25;24;18